Time;durP1;ratioP1;P1;durP2;ratioP2;P2;SDS_P1;SDS_P2;PMS_P1;PMS_P2;Temp;Humidity;BMP_temperature;BMP_pressure;BME280_temperature;BME280_humidity;BME280_pressure;Samples;Min_cycle;Max_cycle;Signal;HPM_P1;HPM_P2
2023/08/13 00:00:26;;;;;;;6.80;2.07;;;;;;;24.64;46.84;99263.88;4843405;29;20189;-86
2023/08/13 00:02:52;;;;;;;5.13;1.97;;;;;;;24.52;47.17;99259.88;4843914;29;20241;-86
2023/08/13 00:05:19;;;;;;;4.30;2.00;;;;;;;24.46;47.74;99252.47;4843904;29;20277;-86
2023/08/13 00:07:45;;;;;;;4.30;2.10;;;;;;;24.28;48.05;99249.09;4843389;29;20206;-86
2023/08/13 00:10:11;;;;;;;5.80;2.73;;;;;;;24.24;48.22;99242.41;4843512;29;20189;-86
2023/08/13 00:12:36;;;;;;;5.37;2.23;;;;;;;24.14;48.75;99244.38;4827238;29;20695;-86
2023/08/13 00:15:04;;;;;;;3.70;2.07;;;;;;;24.09;48.71;99244.03;4827525;29;20185;-86
2023/08/13 00:17:30;;;;;;;4.17;2.27;;;;;;;24.06;48.57;99239.81;4843399;29;20183;-86
2023/08/13 00:19:57;;;;;;;4.27;2.23;;;;;;;24.07;48.48;99229.94;4843859;29;20185;-86
2023/08/13 00:22:23;;;;;;;5.93;1.97;;;;;;;24.05;49.05;99231.94;4843300;29;20612;-85
2023/08/13 00:24:51;;;;;;;3.30;1.73;;;;;;;24.01;49.09;99230.59;4843630;29;20700;-86
2023/08/13 00:27:17;;;;;;;5.77;2.13;;;;;;;23.96;49.40;99235.59;4827144;29;20694;-86
2023/08/13 00:29:44;;;;;;;3.40;2.03;;;;;;;23.87;49.83;99232.06;4827627;29;20193;-86
2023/08/13 00:32:12;;;;;;;4.17;1.77;;;;;;;23.81;50.07;99241.59;4827149;29;20674;-86
2023/08/13 00:34:39;;;;;;;4.03;2.23;;;;;;;23.75;50.42;99236.88;4843291;29;20277;-86
2023/08/13 00:37:05;;;;;;;6.70;1.97;;;;;;;23.67;51.13;99242.19;4843021;29;20623;-86
2023/08/13 00:39:31;;;;;;;3.27;1.90;;;;;;;23.57;51.55;99241.47;4826838;29;20189;-86
2023/08/13 00:41:57;;;;;;;3.90;2.30;;;;;;;23.52;51.79;99248.31;4843277;29;20615;-86
2023/08/13 00:44:24;;;;;;;3.87;1.93;;;;;;;23.50;51.82;99256.50;4842953;29;20250;-86
2023/08/13 00:46:51;;;;;;;5.07;2.07;;;;;;;23.41;51.97;99254.75;4826878;29;20181;-86
2023/08/13 00:49:19;;;;;;;5.63;2.30;;;;;;;23.47;51.66;99251.47;4842799;29;20287;-86
2023/08/13 00:51:45;;;;;;;6.23;2.30;;;;;;;23.47;51.77;99255.97;4842894;29;20189;-86
2023/08/13 00:54:12;;;;;;;4.07;1.90;;;;;;;23.50;51.60;99244.94;4826824;29;20203;-86
2023/08/13 00:56:40;;;;;;;3.47;1.90;;;;;;;23.50;51.92;99252.97;4842634;29;20224;-86
2023/08/13 00:59:08;;;;;;;5.87;2.47;;;;;;;23.44;52.13;99249.09;4827796;29;20181;-86
2023/08/13 01:01:35;;;;;;;6.37;2.43;;;;;;;23.45;52.25;99252.63;4843234;29;20261;-86
2023/08/13 01:04:02;;;;;;;3.47;1.63;;;;;;;23.41;52.61;99256.59;4842970;29;20590;-86
2023/08/13 01:07:02;;;;;;;3.93;2.00;;;;;;;23.26;53.14;99242.94;4842789;29;20272;-86
2023/08/13 01:09:48;;;;;;;4.47;1.80;;;;;;;23.25;52.74;99252.81;4827267;29;20205;-86
2023/08/13 01:12:44;;;;;;;5.10;2.17;;;;;;;23.23;53.21;99254.81;4842406;29;20244;-86
2023/08/13 01:15:24;;;;;;;4.17;1.90;;;;;;;23.21;53.44;99242.59;4826594;29;20185;-86
2023/08/13 01:17:52;;;;;;;3.90;2.23;;;;;;;23.36;53.85;99243.66;4826559;29;20173;-86
2023/08/13 01:20:28;;;;;;;6.17;2.20;;;;;;;23.37;54.15;99248.06;4826434;29;20241;-86
2023/08/13 01:22:55;;;;;;;4.57;2.20;;;;;;;23.47;54.42;99250.63;4826433;29;20559;-85
2023/08/13 01:25:25;;;;;;;5.80;2.00;;;;;;;23.52;54.17;99246.47;4826440;29;20193;-86
2023/08/13 01:28:29;;;;;;;7.03;2.30;;;;;;;23.56;54.00;99247.81;4842409;29;20205;-86
2023/08/13 01:31:11;;;;;;;4.60;2.03;;;;;;;23.53;54.36;99250.00;4842780;29;20195;-86
2023/08/13 01:33:41;;;;;;;3.63;2.20;;;;;;;23.50;53.97;99250.31;4826362;29;20177;-85
2023/08/13 01:36:08;;;;;;;4.20;2.30;;;;;;;23.53;53.76;99245.44;4826283;29;20184;-86
2023/08/13 01:38:35;;;;;;;3.97;2.20;;;;;;;23.57;53.67;99246.81;4826297;29;20232;-86
2023/08/13 01:41:02;;;;;;;5.73;2.20;;;;;;;23.58;53.71;99242.31;4826243;29;20671;-86
2023/08/13 01:43:27;;;;;;;3.40;1.87;;;;;;;23.62;53.98;99244.50;4826285;29;20196;-86
2023/08/13 01:45:53;;;;;;;5.43;2.17;;;;;;;23.63;54.01;99248.03;4826202;29;20193;-86
2023/08/13 01:48:18;;;;;;;3.67;2.10;;;;;;;23.67;53.92;99246.69;4826138;29;20205;-86
2023/08/13 01:50:44;;;;;;;4.07;2.30;;;;;;;23.70;54.15;99244.53;4842182;29;20571;-86
2023/08/13 01:53:11;;;;;;;4.43;2.10;;;;;;;23.72;54.00;99239.03;4842079;29;20185;-85
2023/08/13 01:55:37;;;;;;;8.17;2.07;;;;;;;23.77;54.07;99248.25;4842671;29;20189;-85
2023/08/13 01:58:03;;;;;;;7.23;2.33;;;;;;;23.75;53.94;99236.03;4846079;29;20203;-85
2023/08/13 02:00:30;;;;;;;5.93;2.40;;;;;;;23.70;54.22;99247.22;4829533;29;20263;-85
2023/08/13 02:02:56;;;;;;;4.60;2.53;;;;;;;23.63;54.53;99246.19;4845738;29;20197;-86
2023/08/13 02:05:23;;;;;;;4.70;2.30;;;;;;;23.60;54.60;99246.50;4845973;29;20189;-85
2023/08/13 02:07:49;;;;;;;4.77;2.40;;;;;;;23.57;54.49;99257.53;4845496;29;20221;-85
2023/08/13 02:10:15;;;;;;;4.57;2.30;;;;;;;23.53;54.64;99248.13;4829276;29;20203;-85
2023/08/13 02:12:41;;;;;;;5.23;2.50;;;;;;;23.39;54.95;99245.22;4845498;29;20241;-85
2023/08/13 02:15:08;;;;;;;3.60;1.93;;;;;;;23.25;55.65;99251.97;4845618;29;20181;-86
2023/08/13 02:17:35;;;;;;;4.33;2.10;;;;;;;23.16;55.79;99259.13;4845695;29;20193;-86
2023/08/13 02:20:00;;;;;;;4.70;2.60;;;;;;;23.11;55.53;99260.56;4845729;29;20596;-86
2023/08/13 02:22:26;;;;;;;3.50;2.20;;;;;;;23.09;55.57;99262.53;4845652;29;20272;-86
2023/08/13 02:24:52;;;;;;;7.63;2.13;;;;;;;23.04;55.23;99260.34;4829129;29;20193;-86
2023/08/13 02:27:19;;;;;;;4.70;2.40;;;;;;;22.97;55.54;99259.31;4845095;29;20193;-86
2023/08/13 02:29:45;;;;;;;4.30;2.30;;;;;;;22.88;55.44;99256.69;4829050;29;20185;-86
2023/08/13 02:32:11;;;;;;;4.50;2.50;;;;;;;22.83;56.06;99259.00;4845260;29;20201;-85
2023/08/13 02:34:45;;;;;;;4.33;1.93;;;;;;;22.80;56.03;99256.66;4828706;29;20563;-85
2023/08/13 02:37:12;;;;;;;5.03;2.57;;;;;;;22.75;55.98;99256.25;4845522;29;20183;-85
2023/08/13 02:39:39;;;;;;;3.30;2.37;;;;;;;22.74;56.37;99259.94;4828885;29;20284;-85
2023/08/13 02:42:04;;;;;;;5.27;2.37;;;;;;;22.67;56.58;99261.56;4845128;29;20665;-85
2023/08/13 02:44:31;;;;;;;6.37;2.20;;;;;;;22.57;56.89;99251.75;4845078;29;20208;-85
2023/08/13 02:46:57;;;;;;;4.77;2.70;;;;;;;22.50;56.93;99260.53;4828579;29;20185;-85
2023/08/13 02:49:24;;;;;;;5.50;2.47;;;;;;;22.39;57.72;99261.59;4844929;29;20205;-85
2023/08/13 02:51:50;;;;;;;4.67;2.10;;;;;;;22.27;58.30;99264.66;4844939;29;20193;-85
2023/08/13 02:54:17;;;;;;;5.67;2.00;;;;;;;22.21;58.15;99263.44;4828637;29;20269;-85
2023/08/13 02:56:44;;;;;;;5.00;2.70;;;;;;;22.17;58.27;99262.03;4844844;29;20181;-85
2023/08/13 02:59:10;;;;;;;3.90;2.30;;;;;;;22.10;58.20;99271.63;4844790;29;20185;-86
2023/08/13 03:01:38;;;;;;;3.80;2.30;;;;;;;22.03;58.51;99267.91;4844641;29;20192;-85
2023/08/13 03:04:06;;;;;;;5.73;2.60;;;;;;;22.02;58.45;99268.88;4845234;29;20647;-85
2023/08/13 03:06:31;;;;;;;5.37;3.00;;;;;;;22.09;57.63;99267.28;4844579;29;20181;-85
2023/08/13 03:08:56;;;;;;;6.03;3.07;;;;;;;21.98;58.40;99278.19;4844326;29;20205;-85
2023/08/13 03:11:22;;;;;;;5.60;2.77;;;;;;;21.89;58.63;99276.41;4828157;29;20710;-85
2023/08/13 03:13:49;;;;;;;6.40;2.63;;;;;;;21.84;58.83;99281.31;4845162;29;20272;-86
2023/08/13 03:16:16;;;;;;;4.13;2.67;;;;;;;21.82;58.65;99275.28;4828628;29;20185;-85
2023/08/13 03:18:43;;;;;;;4.77;2.47;;;;;;;21.74;58.68;99275.19;4844507;29;20208;-85
2023/08/13 03:21:09;;;;;;;5.50;2.87;;;;;;;21.61;59.19;99283.53;4843830;29;20189;-84
2023/08/13 03:23:35;;;;;;;4.13;2.47;;;;;;;21.63;58.92;99278.03;4848970;29;20189;-86
2023/08/13 03:26:03;;;;;;;8.17;2.70;;;;;;;21.64;58.71;99275.25;4844062;29;20628;-86
2023/08/13 03:28:30;;;;;;;4.50;2.10;;;;;;;21.89;60.59;99279.06;4843678;29;20826;-86
2023/08/13 03:31:01;;;;;;;4.40;2.10;;;;;;;22.03;61.01;99278.56;4843868;29;20264;-86
2023/08/13 03:33:27;;;;;;;4.23;2.40;;;;;;;22.19;60.95;99273.41;4843760;29;20193;-86
2023/08/13 03:35:54;;;;;;;3.97;2.50;;;;;;;22.30;60.78;99273.19;4844015;29;20185;-86
2023/08/13 03:38:21;;;;;;;8.10;2.53;;;;;;;22.42;60.44;99269.31;4843603;29;20291;-87
2023/08/13 03:40:48;;;;;;;4.60;2.37;;;;;;;22.50;60.65;99273.91;4843934;29;20189;-86
2023/08/13 03:43:14;;;;;;;4.50;2.43;;;;;;;22.58;60.16;99272.16;4843609;29;20207;-86
2023/08/13 03:45:44;;;;;;;4.37;2.13;;;;;;;22.61;60.28;99271.81;4827624;29;20204;-86
2023/08/13 03:48:10;;;;;;;5.33;2.40;;;;;;;22.62;60.41;99273.53;4843453;29;20694;-86
2023/08/13 03:50:41;;;;;;;5.10;2.30;;;;;;;22.72;60.73;99269.97;4827525;29;20193;-86
2023/08/13 03:53:09;;;;;;;6.97;2.70;;;;;;;22.75;60.52;99267.78;4843462;29;20184;-86
2023/08/13 03:55:36;;;;;;;7.97;2.97;;;;;;;22.79;60.85;99269.19;4827810;29;20745;-86
2023/08/13 03:58:04;;;;;;;8.17;2.53;;;;;;;22.79;60.49;99265.66;4843471;29;20184;-86
2023/08/13 04:00:31;;;;;;;5.73;2.20;;;;;;;22.80;60.79;99272.72;4827254;29;20201;-87
2023/08/13 04:02:58;;;;;;;4.67;2.70;;;;;;;22.74;60.79;99262.63;4843229;29;20195;-86
2023/08/13 04:05:26;;;;;;;3.90;2.33;;;;;;;22.59;61.20;99273.81;4827347;29;20630;-86
2023/08/13 04:07:52;;;;;;;4.57;2.53;;;;;;;22.67;61.33;99270.41;4843012;29;20675;-86
2023/08/13 04:10:18;;;;;;;4.83;2.73;;;;;;;22.68;61.86;99271.25;4842906;29;20225;-86
2023/08/13 04:12:43;;;;;;;5.50;2.50;;;;;;;22.73;61.60;99277.81;4843147;29;20270;-86
2023/08/13 04:15:09;;;;;;;5.93;2.50;;;;;;;22.91;61.01;99269.75;4842781;29;20200;-86
2023/08/13 04:17:36;;;;;;;4.63;2.20;;;;;;;22.99;60.30;99272.50;4826855;29;20182;-86
2023/08/13 04:20:03;;;;;;;6.47;2.30;;;;;;;23.04;59.83;99280.91;4824135;29;20192;-86
2023/08/13 04:22:30;;;;;;;3.97;2.40;;;;;;;23.13;58.58;99288.00;4824864;29;20177;-86
2023/08/13 04:25:00;;;;;;;4.10;2.60;;;;;;;23.18;57.41;99285.69;4834913;29;20265;-87
2023/08/13 04:27:25;;;;;;;5.20;2.33;;;;;;;23.15;56.36;99278.81;4831274;29;20260;-86
2023/08/13 04:29:52;;;;;;;6.07;2.80;;;;;;;23.14;55.67;99282.47;4825770;29;20193;-87
2023/08/13 04:32:18;;;;;;;7.23;2.50;;;;;;;22.97;55.82;99287.88;4841702;29;20215;-86
2023/08/13 04:34:45;;;;;;;4.67;1.90;;;;;;;23.11;54.90;99292.66;4825186;29;20193;-87
2023/08/13 04:37:10;;;;;;;3.97;2.27;;;;;;;23.02;54.59;99290.91;4824997;29;20258;-86
2023/08/13 04:39:37;;;;;;;6.43;2.57;;;;;;;22.80;55.16;99294.91;4839485;29;20185;-86
2023/08/13 04:42:04;;;;;;;3.63;2.00;;;;;;;22.65;55.01;99288.44;4827023;29;20261;-87
2023/08/13 04:44:30;;;;;;;4.60;2.40;;;;;;;22.79;54.96;99282.56;4834222;29;20194;-87
2023/08/13 04:46:57;;;;;;;4.83;2.33;;;;;;;22.88;54.46;99291.44;4840340;29;20189;-88
2023/08/13 04:49:22;;;;;;;7.03;2.57;;;;;;;22.91;54.00;99289.31;4834918;29;20366;-87
2023/08/13 04:51:49;;;;;;;8.30;2.57;;;;;;;23.05;53.70;99293.28;4826919;29;20662;-87
2023/08/13 04:54:14;;;;;;;5.37;2.37;;;;;;;23.17;53.36;99290.19;4821556;29;20219;-86
2023/08/13 04:56:41;;;;;;;8.97;2.40;;;;;;;23.37;52.02;99298.91;4839523;29;20196;-86
2023/08/13 04:59:06;;;;;;;5.60;2.07;;;;;;;23.36;51.72;99290.97;4821880;29;20208;-86
2023/08/13 05:01:32;;;;;;;4.37;2.37;;;;;;;23.50;50.87;99299.31;4824132;29;20624;-86
2023/08/13 05:03:58;;;;;;;6.10;2.30;;;;;;;23.72;50.68;99301.44;4842265;29;20632;-87
2023/08/13 05:06:23;;;;;;;5.40;1.77;;;;;;;23.74;51.25;99295.94;4840830;29;20196;-86
2023/08/13 05:08:49;;;;;;;4.13;1.97;;;;;;;23.89;51.36;99293.47;4826187;29;20209;-88
2023/08/13 05:11:14;;;;;;;5.67;2.10;;;;;;;23.88;51.99;99292.63;4817632;29;20193;-87
2023/08/13 05:13:40;;;;;;;5.67;2.43;;;;;;;23.99;51.27;99294.19;4831128;29;20192;-87
2023/08/13 05:16:06;;;;;;;5.37;2.17;;;;;;;24.20;51.49;99300.81;4839428;29;20249;-87
2023/08/13 05:18:31;;;;;;;4.00;2.10;;;;;;;24.26;51.53;99305.53;4824022;29;20226;-87
2023/08/13 05:20:57;;;;;;;6.17;2.07;;;;;;;24.49;51.25;99300.41;4823901;29;20205;-87
2023/08/13 05:23:22;;;;;;;4.80;2.20;;;;;;;24.55;51.24;99294.38;4825648;29;20644;-87
2023/08/13 05:25:48;;;;;;;4.87;2.10;;;;;;;24.68;51.03;99293.88;4841876;29;20189;-87
2023/08/13 05:28:13;;;;;;;3.60;1.70;;;;;;;24.73;50.89;99295.06;4826144;29;20296;-87
2023/08/13 05:30:39;;;;;;;5.37;2.30;;;;;;;24.86;50.17;99295.44;4842767;29;20200;-88
2023/08/13 05:33:05;;;;;;;5.40;2.60;;;;;;;24.92;49.95;99286.72;4848347;29;20185;-87
2023/08/13 05:35:30;;;;;;;4.03;2.37;;;;;;;25.10;50.02;99294.59;4840005;29;20635;-87
2023/08/13 05:37:56;;;;;;;5.23;2.60;;;;;;;25.32;49.38;99290.38;4842427;29;20531;-87
2023/08/13 05:40:22;;;;;;;5.50;2.53;;;;;;;25.49;49.11;99294.75;4830247;29;20193;-87
2023/08/13 05:42:48;;;;;;;6.23;2.17;;;;;;;25.43;48.37;99298.06;4828257;29;20200;-87
2023/08/13 05:45:14;;;;;;;3.57;1.97;;;;;;;25.49;48.66;99292.06;4828928;29;20188;-86
2023/08/13 05:47:41;;;;;;;6.73;2.20;;;;;;;25.69;48.09;99297.84;4847868;29;20219;-87
2023/08/13 05:50:06;;;;;;;3.93;2.17;;;;;;;25.72;47.52;99303.72;4848252;29;20212;-86
2023/08/13 05:52:32;;;;;;;5.43;2.83;;;;;;;25.80;47.08;99301.03;4848528;29;20239;-87
2023/08/13 05:54:57;;;;;;;6.83;2.27;;;;;;;25.71;46.63;99296.69;4830240;29;20703;-89
2023/08/13 05:57:23;;;;;;;3.70;2.10;;;;;;;26.06;46.60;99301.59;4847728;29;20200;-87
2023/08/13 05:59:48;;;;;;;6.17;2.57;;;;;;;26.30;45.66;99305.19;4845402;29;20181;-87
2023/08/13 06:02:13;;;;;;;4.70;2.47;;;;;;;26.50;45.19;99284.91;4830886;29;20201;-88
2023/08/13 06:04:39;;;;;;;3.03;1.77;;;;;;;26.54;44.14;99299.69;4848057;29;20185;-88
2023/08/13 06:07:05;;;;;;;4.63;2.20;;;;;;;26.40;44.99;99298.59;4847944;29;20181;-86
2023/08/13 06:09:31;;;;;;;5.13;2.20;;;;;;;26.27;44.77;99305.53;4848043;29;20743;-87
2023/08/13 06:11:56;;;;;;;4.40;2.17;;;;;;;26.42;44.95;99306.47;4844502;29;20204;-86
2023/08/13 06:14:22;;;;;;;4.97;2.10;;;;;;;26.48;44.64;99311.97;4846300;29;20181;-87
2023/08/13 06:16:48;;;;;;;3.37;2.10;;;;;;;26.67;45.20;99305.31;4843024;29;20188;-86
2023/08/13 06:19:14;;;;;;;8.97;2.37;;;;;;;26.90;44.08;99308.84;4847745;29;20844;-87
2023/08/13 06:21:40;;;;;;;8.70;2.47;;;;;;;27.05;43.61;99319.66;4843884;29;20206;-87
2023/08/13 06:24:06;;;;;;;5.73;2.30;;;;;;;27.24;44.04;99311.94;4847656;29;20185;-88
2023/08/13 06:26:36;;;;;;;7.90;2.30;;;;;;;27.09;42.67;99311.06;4842574;29;20732;-89
2023/08/13 06:29:14;;;;;;;4.07;2.30;;;;;;;27.32;43.26;99319.94;4843882;29;20208;-87
2023/08/13 06:31:41;;;;;;;10.33;2.27;;;;;;;27.57;41.99;99319.72;4846815;29;20181;-86
2023/08/13 06:34:07;;;;;;;3.92;1.83;;;;;;;27.69;42.08;99311.00;4844593;29;20181;-86
2023/08/13 06:36:33;;;;;;;10.05;2.20;;;;;;;27.84;42.28;99316.38;4830400;29;20207;-86
2023/08/13 06:38:59;;;;;;;4.88;2.38;;;;;;;28.13;40.64;99315.56;4830570;29;20659;-86
2023/08/13 06:41:27;;;;;;;4.37;2.30;;;;;;;28.23;40.03;99322.31;4828147;29;20237;-86
2023/08/13 06:43:54;;;;;;;4.80;2.30;;;;;;;27.95;40.01;99324.84;4837926;29;20253;-86
2023/08/13 06:46:21;;;;;;;4.07;1.97;;;;;;;27.98;40.69;99327.16;4845353;29;20213;-86
2023/08/13 06:48:48;;;;;;;4.93;2.15;;;;;;;28.17;40.93;99328.47;4841729;29;20208;-86
2023/08/13 06:51:14;;;;;;;6.72;1.90;;;;;;;28.35;40.04;99325.38;4826781;29;20205;-86
2023/08/13 06:53:39;;;;;;;4.45;1.75;;;;;;;28.67;40.80;99319.53;4827286;29;20257;-87
2023/08/13 06:56:06;;;;;;;4.47;1.88;;;;;;;28.97;38.92;99320.25;4844920;29;20181;-87
2023/08/13 06:58:59;;;;;;;5.30;2.20;;;;;;;29.21;38.60;99314.50;4828912;29;20596;-92
2023/08/13 07:01:24;;;;;;;2.97;1.70;;;;;;;29.55;37.29;99308.31;4817109;29;20185;-88
2023/08/13 07:03:50;;;;;;;4.22;2.03;;;;;;;29.92;35.65;99317.91;4828921;29;20189;-87
2023/08/13 07:06:17;;;;;;;3.70;2.00;;;;;;;30.20;36.42;99307.84;4845359;29;20181;-88
2023/08/13 07:08:44;;;;;;;6.65;2.17;;;;;;;30.20;36.12;99311.41;4837865;29;20209;-88
2023/08/13 07:11:09;;;;;;;3.72;1.80;;;;;;;30.49;34.84;99313.00;4842141;29;20231;-89
2023/08/13 07:13:51;;;;;;;6.15;1.92;;;;;;;30.46;35.64;99313.41;4844720;29;20279;-89
2023/08/13 07:16:17;;;;;;;4.07;1.90;;;;;;;30.51;34.21;99315.47;4844685;29;20177;-87
2023/08/13 07:18:42;;;;;;;3.20;2.22;;;;;;;30.73;33.90;99304.31;4825299;29;20242;-86
2023/08/13 07:21:08;;;;;;;3.22;1.75;;;;;;;30.84;33.46;99306.44;4843448;29;20641;-87
2023/08/13 07:23:35;;;;;;;2.90;1.60;;;;;;;30.86;33.34;99298.09;4843344;29;20668;-86
2023/08/13 07:26:03;;;;;;;3.50;1.77;;;;;;;30.59;33.62;99308.03;4846468;29;20636;-88
2023/08/13 07:28:32;;;;;;;4.97;1.88;;;;;;;30.72;34.70;99302.63;4847489;29;20691;-86
2023/08/13 07:30:59;;;;;;;7.25;4.50;;;;;;;31.01;33.95;99301.44;4846462;29;20185;-86
2023/08/13 07:33:25;;;;;;;3.53;2.05;;;;;;;30.66;32.85;99295.31;4847915;29;20185;-86
2023/08/13 07:35:51;;;;;;;3.72;1.83;;;;;;;30.90;33.20;99291.19;4847575;29;20241;-86
2023/08/13 07:38:17;;;;;;;3.20;1.50;;;;;;;31.11;34.25;99287.50;4846913;29;20268;-86
2023/08/13 07:40:44;;;;;;;3.17;1.77;;;;;;;30.84;32.25;99290.19;4846964;29;20280;-87
2023/08/13 07:43:09;;;;;;;3.72;1.58;;;;;;;30.73;32.38;99290.78;4843976;29;20212;-87
2023/08/13 07:45:36;;;;;;;3.60;2.00;;;;;;;30.94;33.04;99285.22;4846126;29;20221;-87
2023/08/13 07:48:03;;;;;;;3.13;1.60;;;;;;;31.11;32.11;99287.50;4828405;29;20212;-87
2023/08/13 07:50:30;;;;;;;3.63;1.60;;;;;;;31.34;33.85;99282.50;4824492;29;20186;-87
2023/08/13 07:52:55;;;;;;;5.05;1.70;;;;;;;31.50;32.35;99279.38;4822518;29;20194;-87
2023/08/13 07:55:21;;;;;;;5.53;1.70;;;;;;;31.49;31.83;99285.84;4835866;29;20284;-87
2023/08/13 07:57:46;;;;;;;3.42;1.30;;;;;;;31.90;31.38;99286.38;4837869;29;20256;-87
2023/08/13 08:00:14;;;;;;;5.30;1.60;;;;;;;32.28;30.92;99282.91;4838351;29;20264;-87
2023/08/13 08:02:43;;;;;;;3.17;1.73;;;;;;;32.25;31.10;99288.78;4840837;29;20644;-87
2023/08/13 08:05:10;;;;;;;2.25;1.23;;;;;;;32.42;31.26;99263.63;4831711;29;20200;-86
2023/08/13 08:07:36;;;;;;;3.15;1.60;;;;;;;32.93;29.43;99259.97;4843408;29;20220;-86
2023/08/13 08:10:03;;;;;;;2.90;1.50;;;;;;;33.40;28.92;99268.38;4843506;29;20552;-87
2023/08/13 08:12:30;;;;;;;2.85;1.55;;;;;;;33.52;29.75;99267.63;4841749;29;20240;-86
2023/08/13 08:14:57;;;;;;;2.47;1.30;;;;;;;33.47;28.52;99268.28;4841855;29;20196;-87
2023/08/13 08:17:23;;;;;;;3.58;1.50;;;;;;;33.51;28.66;99257.81;4830254;29;20204;-86
2023/08/13 08:19:50;;;;;;;5.28;2.28;;;;;;;33.47;28.03;99253.84;4830315;29;20232;-88
2023/08/13 08:22:17;;;;;;;6.82;1.42;;;;;;;33.81;27.39;99247.88;4816223;29;20541;-87
2023/08/13 08:24:44;;;;;;;3.50;1.65;;;;;;;33.76;26.57;99253.16;4819252;29;20359;-87
2023/08/13 08:27:09;;;;;;;2.80;1.35;;;;;;;33.85;26.39;99236.31;4823945;29;20284;-87
2023/08/13 08:29:36;;;;;;;3.70;1.90;;;;;;;33.10;27.10;99244.84;4825758;29;20292;-86
2023/08/13 08:32:03;;;;;;;5.93;1.92;;;;;;;32.54;28.11;99242.09;4843244;29;20196;-86
2023/08/13 08:34:30;;;;;;;2.55;1.00;;;;;;;33.07;27.88;99245.28;4843626;29;20185;-86
2023/08/13 08:36:57;;;;;;;4.50;1.65;;;;;;;33.74;28.60;99238.97;4843842;29;20189;-87
2023/08/13 08:39:23;;;;;;;4.00;1.60;;;;;;;33.79;27.09;99233.66;4811305;29;20282;-87
2023/08/13 08:41:56;;;;;;;3.67;1.63;;;;;;;34.10;26.82;99240.84;4840491;29;20193;-87
2023/08/13 08:44:24;;;;;;;3.38;1.48;;;;;;;34.16;26.04;99235.31;4825078;29;20174;-87
2023/08/13 08:46:54;;;;;;;3.50;1.80;;;;;;;34.33;27.15;99235.53;4824852;29;20262;-86
2023/08/13 08:49:21;;;;;;;4.10;1.60;;;;;;;34.41;27.57;99233.28;4825157;29;20572;-87
2023/08/13 08:51:49;;;;;;;3.80;1.58;;;;;;;34.29;25.73;99223.44;4839536;29;20197;-87
2023/08/13 08:54:15;;;;;;;3.22;1.40;;;;;;;34.49;25.60;99227.50;4835417;29;20194;-88
2023/08/13 08:56:41;;;;;;;5.35;1.88;;;;;;;34.46;27.14;99224.44;4840033;29;20679;-87
2023/08/13 08:59:08;;;;;;;2.97;1.50;;;;;;;34.80;25.21;99215.53;4843113;29;20185;-87
2023/08/13 09:01:34;;;;;;;3.25;1.50;;;;;;;34.47;25.23;99221.47;4843258;29;20745;-88
2023/08/13 09:04:01;;;;;;;9.32;1.88;;;;;;;34.44;25.22;99216.50;4823350;29;20643;-87
2023/08/13 09:06:54;;;;;;;2.75;1.38;;;;;;;34.32;25.92;99215.63;4841014;29;20196;-86
2023/08/13 09:09:22;;;;;;;3.08;1.50;;;;;;;34.30;25.62;99214.22;4821751;29;20232;-86
2023/08/13 09:11:48;;;;;;;4.80;1.60;;;;;;;34.30;25.62;99209.59;4840682;29;20200;-86
2023/08/13 09:14:15;;;;;;;3.90;1.50;;;;;;;33.90;26.52;99213.88;4822939;29;20208;-86
2023/08/13 09:16:50;;;;;;;4.43;1.70;;;;;;;33.76;26.36;99209.66;4838409;29;20226;-86
2023/08/13 09:19:17;;;;;;;3.05;1.30;;;;;;;33.72;26.47;99203.00;4823279;29;20558;-86
2023/08/13 09:21:57;;;;;;;5.18;1.48;;;;;;;33.83;26.63;99194.91;4839546;29;20207;-86
2023/08/13 09:24:31;;;;;;;2.88;1.48;;;;;;;34.42;25.41;99188.69;4823324;29;20177;-86
2023/08/13 09:27:02;;;;;;;2.67;1.40;;;;;;;34.73;24.38;99186.75;4836702;29;20198;-88
2023/08/13 09:29:30;;;;;;;2.88;1.20;;;;;;;34.54;24.40;99186.81;4811422;29;20209;-85
2023/08/13 09:31:56;;;;;;;3.22;1.50;;;;;;;34.09;24.40;99185.63;4819184;29;20253;-86
2023/08/13 09:34:26;;;;;;;3.42;1.23;;;;;;;33.47;25.00;99192.19;4824628;29;20240;-86
2023/08/13 09:36:54;;;;;;;3.72;1.48;;;;;;;33.39;26.70;99189.75;4841973;29;20188;-87
2023/08/13 09:39:28;;;;;;;3.85;1.50;;;;;;;33.97;24.24;99196.41;4841971;29;20188;-87
2023/08/13 09:41:55;;;;;;;6.20;1.27;;;;;;;34.34;24.39;99171.84;4842445;29;20169;-88
2023/08/13 09:44:26;;;;;;;2.05;1.00;;;;;;;34.53;23.59;99178.88;4842219;29;20248;-88
2023/08/13 09:46:57;;;;;;;2.45;1.23;;;;;;;33.98;24.17;99189.91;4842110;29;20185;-85
2023/08/13 09:49:29;;;;;;;8.25;1.65;;;;;;;33.12;25.09;99186.50;4842136;29;20194;-87
2023/08/13 09:51:59;;;;;;;2.78;1.40;;;;;;;32.98;25.16;99175.94;4842006;29;20620;-86
2023/08/13 09:55:04;;;;;;;7.25;1.98;;;;;;;33.58;25.60;99177.03;4842267;29;20276;-86
2023/08/13 09:57:32;;;;;;;3.60;1.58;;;;;;;34.02;24.77;99193.00;4840910;29;20208;-86
2023/08/13 10:00:00;;;;;;;5.88;1.30;;;;;;;34.01;24.65;99181.28;4842059;29;20185;-86
2023/08/13 10:02:28;;;;;;;8.77;2.38;;;;;;;34.34;24.01;99180.84;4841882;29;20655;-86
2023/08/13 10:04:56;;;;;;;3.08;1.10;;;;;;;34.46;23.83;99170.00;4842061;29;20200;-88
2023/08/13 10:07:22;;;;;;;3.15;0.93;;;;;;;34.65;23.71;99163.41;4841819;29;20185;-86
2023/08/13 10:09:50;;;;;;;3.00;1.40;;;;;;;34.27;24.86;99171.13;4841429;29;20731;-85
2023/08/13 10:12:17;;;;;;;5.15;1.42;;;;;;;34.36;23.65;99177.88;4836203;29;20248;-87
2023/08/13 10:14:44;;;;;;;2.40;1.17;;;;;;;34.38;24.21;99173.06;4825476;29;20676;-86
2023/08/13 10:17:16;;;;;;;3.53;1.90;;;;;;;33.85;25.41;99162.88;4842909;29;20655;-85
2023/08/13 10:19:49;;;;;;;10.00;1.58;;;;;;;34.31;23.83;99169.59;4827634;29;20632;-85
2023/08/13 10:22:29;;;;;;;2.65;1.15;;;;;;;33.74;25.08;99170.97;4845228;29;20204;-85
2023/08/13 10:24:57;;;;;;;5.35;1.30;;;;;;;34.62;24.22;99163.06;4845307;29;20260;-86
2023/08/13 10:27:24;;;;;;;3.47;1.00;;;;;;;34.93;23.81;99166.28;4844919;29;20189;-86
2023/08/13 10:30:10;;;;;;;6.20;1.60;;;;;;;34.39;24.05;99170.09;4845029;29;20706;-85
2023/08/13 10:32:48;;;;;;;4.95;1.17;;;;;;;35.02;22.72;99158.59;4845146;29;20185;-87
2023/08/13 10:35:40;;;;;;;4.18;1.23;;;;;;;35.16;23.00;99149.13;4844956;29;20189;-86
2023/08/13 10:38:07;;;;;;;3.58;1.02;;;;;;;35.10;23.36;99144.63;4845138;29;20636;-86
2023/08/13 10:40:36;;;;;;;4.80;1.20;;;;;;;35.27;23.63;99153.75;4845006;29;20218;-88
2023/08/13 10:43:04;;;;;;;2.10;1.20;;;;;;;34.79;24.03;99136.78;4844776;29;20745;-85
2023/08/13 10:45:35;;;;;;;2.63;0.95;;;;;;;34.90;23.31;99135.97;4844844;29;20196;-86
2023/08/13 10:48:08;;;;;;;2.90;1.23;;;;;;;35.24;23.60;99118.81;4844800;29;20205;-87
2023/08/13 10:50:42;;;;;;;3.72;1.63;;;;;;;35.53;22.49;99134.19;4845155;29;20261;-85
2023/08/13 10:53:24;;;;;;;4.05;1.08;;;;;;;35.21;23.19;99129.34;4828702;29;20340;-86
2023/08/13 10:55:52;;;;;;;5.05;1.25;;;;;;;35.51;23.37;99124.56;4844865;29;20628;-86
2023/08/13 10:58:41;;;;;;;2.05;0.98;;;;;;;35.96;23.66;99127.34;4844798;29;20291;-85
2023/08/13 11:01:19;;;;;;;2.75;1.30;;;;;;;36.09;23.00;99127.09;4844757;29;20193;-86
2023/08/13 11:03:54;;;;;;;6.95;1.27;;;;;;;36.21;21.73;99125.97;4827452;29;20264;-87
2023/08/13 11:06:23;;;;;;;2.33;1.20;;;;;;;35.28;23.21;99128.13;4828574;29;20556;-86
2023/08/13 11:08:49;;;;;;;2.42;1.30;;;;;;;35.39;22.92;99126.47;4834690;29;20209;-85
2023/08/13 11:11:18;;;;;;;3.83;1.50;;;;;;;35.41;23.55;99122.41;4842066;29;20196;-85
2023/08/13 11:13:44;;;;;;;3.20;1.00;;;;;;;35.80;22.43;99123.50;4844841;29;20267;-85
2023/08/13 11:16:11;;;;;;;4.55;1.10;;;;;;;36.16;21.85;99125.06;4828173;29;20203;-86
2023/08/13 11:18:37;;;;;;;3.45;1.30;;;;;;;36.13;21.85;99117.34;4843874;29;20181;-86
2023/08/13 11:21:04;;;;;;;2.53;1.25;;;;;;;35.61;22.54;99120.16;4827043;29;20181;-87
2023/08/13 11:23:31;;;;;;;2.92;1.20;;;;;;;36.07;21.96;99112.84;4827873;29;20199;-85
2023/08/13 11:25:57;;;;;;;3.33;1.20;;;;;;;36.03;22.83;99111.72;4844030;29;20635;-87
2023/08/13 11:28:27;;;;;;;2.78;1.00;;;;;;;36.13;20.89;99101.81;4831860;29;20276;-86
2023/08/13 11:30:57;;;;;;;4.20;1.02;;;;;;;36.02;21.91;99105.41;4827537;29;20564;-86
2023/08/13 11:33:25;;;;;;;3.83;1.30;;;;;;;35.58;21.83;99100.72;4843723;29;20197;-86
2023/08/13 11:35:51;;;;;;;5.15;1.40;;;;;;;35.67;22.54;99094.63;4843462;29;20188;-86
2023/08/13 11:38:18;;;;;;;3.47;1.15;;;;;;;35.57;22.97;99101.78;4842946;29;20177;-86